createdAt,value
2022-12-27T00:01:42.971Z,98041.94
2022-12-27T00:04:20.513Z,98041.22
2022-12-27T00:06:52.417Z,98043.66
2022-12-27T00:09:23.342Z,98035.78
2022-12-27T00:12:01.511Z,98039.41
2022-12-27T00:14:33.191Z,98044.63
2022-12-27T00:17:03.002Z,98033.84
2022-12-27T00:19:31.361Z,98020.44
2022-12-27T00:21:59.880Z,98031.31
2022-12-27T00:24:29.678Z,98008.22
2022-12-27T00:26:58.214Z,98010.13
2022-12-27T00:29:26.470Z,98004.81
2022-12-27T00:31:55.005Z,97998.22
2022-12-27T00:34:23.438Z,98008.16
2022-12-27T00:36:52.168Z,98009.63
2022-12-27T00:39:20.451Z,98004.22
2022-12-27T00:41:50.651Z,97993.31
2022-12-27T00:44:19.096Z,97998.53
2022-12-27T00:46:47.794Z,98004.50
2022-12-27T00:49:16.117Z,97987.38
2022-12-27T00:51:45.127Z,97997.03
2022-12-27T00:54:13.437Z,98009.31
2022-12-27T00:56:42.203Z,98004.94
2022-12-27T00:59:13.471Z,97997.91
2022-12-27T01:01:42.612Z,98000.75
2022-12-27T01:04:13.455Z,98013.66
2022-12-27T01:06:42.420Z,98024.91
2022-12-27T01:09:10.688Z,97991.94
2022-12-27T01:11:41.357Z,98007.13
2022-12-27T01:14:09.604Z,98018.59
2022-12-27T01:16:40.770Z,98008.16
2022-12-27T01:19:09.101Z,98004.13
2022-12-27T01:21:37.664Z,98026.34
2022-12-27T01:24:07.318Z,98031.72
2022-12-27T01:26:35.996Z,98031.25
2022-12-27T01:29:04.298Z,98030.75
2022-12-27T01:31:32.902Z,98044.53
2022-12-27T01:34:04.538Z,98038.28
2022-12-27T01:36:33.193Z,98045.25
2022-12-27T01:39:01.809Z,98070.09
2022-12-27T01:41:49.879Z,98078.00
2022-12-27T01:45:02.706Z,98093.47
2022-12-27T01:47:38.340Z,98101.09
2022-12-27T01:50:16.569Z,98090.63
2022-12-27T01:52:49.530Z,98099.09
2022-12-27T01:55:23.279Z,98101.41
2022-12-27T01:57:54.406Z,98103.28
2022-12-27T02:00:22.804Z,98112.53
2022-12-27T02:02:52.160Z,98108.25
2022-12-27T02:05:23.548Z,98107.59
2022-12-27T02:07:59.611Z,98109.72
2022-12-27T02:10:29.706Z,98113.06
2022-12-27T02:12:58.972Z,98120.06
2022-12-27T02:15:27.197Z,98112.59
2022-12-27T02:17:55.787Z,98116.16
2022-12-27T02:20:27.230Z,98126.47
2022-12-27T02:24:04.582Z,98121.13
2022-12-27T02:26:40.500Z,98135.53
2022-12-27T02:29:28.754Z,98135.53
2022-12-27T02:32:00.803Z,98128.53
2022-12-27T02:34:35.296Z,98130.22
2022-12-27T02:37:06.336Z,98141.13
2022-12-27T02:39:38.387Z,98136.59
2022-12-27T02:42:24.934Z,98136.41
2022-12-27T02:45:14.550Z,98140.22
2022-12-27T02:48:01.033Z,98126.91
2022-12-27T02:50:54.035Z,98139.56
2022-12-27T02:53:32.063Z,98138.34
2022-12-27T02:56:27.443Z,98148.59
2022-12-27T02:59:05.022Z,98149.31
2022-12-27T03:02:00.837Z,98151.41
2022-12-27T03:04:45.150Z,98146.38
2022-12-27T03:07:27.833Z,98164.28
2022-12-27T03:10:33.359Z,98159.34
2022-12-27T03:13:28.858Z,98173.94
2022-12-27T03:16:06.762Z,98179.38
2022-12-27T03:18:47.883Z,98185.63
2022-12-27T03:21:37.723Z,98181.88
2022-12-27T03:24:36.002Z,98195.53
2022-12-27T03:27:07.344Z,98194.31
2022-12-27T03:29:53.219Z,98200.41
2022-12-27T03:32:40.133Z,98202.19
2022-12-27T03:35:14.751Z,98211.00
2022-12-27T03:38:05.693Z,98224.78
2022-12-27T03:40:41.234Z,98232.41
2022-12-27T03:43:13.994Z,98240.63
2022-12-27T03:46:09.954Z,98256.94
2022-12-27T03:48:45.384Z,98250.19
2022-12-27T03:51:16.496Z,98248.50
2022-12-27T03:53:46.515Z,98254.84
2022-12-27T03:56:15.018Z,98257.44
2022-12-27T03:58:43.403Z,98260.44
2022-12-27T04:01:11.998Z,98273.44
2022-12-27T04:03:40.485Z,98277.47
2022-12-27T04:06:09.232Z,98279.22
2022-12-27T04:08:56.247Z,98283.97
2022-12-27T04:11:42.324Z,98289.09
2022-12-27T04:14:28.047Z,98294.00
2022-12-27T04:17:14.266Z,98291.09
2022-12-27T04:20:00.309Z,98301.56
2022-12-27T04:22:46.434Z,98290.66
2022-12-27T04:25:33.416Z,98313.34
2022-12-27T04:28:19.729Z,98315.00
2022-12-27T04:31:05.417Z,98319.41
2022-12-27T04:33:51.527Z,98319.94
2022-12-27T04:36:19.952Z,98333.59
2022-12-27T04:38:48.636Z,98326.50
2022-12-27T04:41:36.335Z,98322.38
2022-12-27T04:44:22.714Z,98335.25
2022-12-27T04:47:08.309Z,98333.59
2022-12-27T04:49:59.889Z,98341.78
2022-12-27T04:52:45.661Z,98347.81
2022-12-27T04:55:19.538Z,98350.53
2022-12-27T04:57:49.739Z,98353.81
2022-12-27T05:00:36.625Z,98355.44
2022-12-27T05:03:06.967Z,98371.28
2022-12-27T05:05:36.150Z,98377.56
2022-12-27T05:08:22.656Z,98378.38
2022-12-27T05:11:08.622Z,98395.06
2022-12-27T05:13:55.888Z,98406.25
2022-12-27T05:16:26.655Z,98408.97
2022-12-27T05:18:55.245Z,98411.69
2022-12-27T05:21:23.877Z,98396.69
2022-12-27T05:24:10.106Z,98414.94
2022-12-27T05:26:39.580Z,98429.97
2022-12-27T05:29:10.123Z,98438.47
2022-12-27T05:31:38.773Z,98439.94
2022-12-27T05:34:07.617Z,98461.34
2022-12-27T05:36:36.144Z,98468.69
2022-12-27T05:39:04.566Z,98462.66
2022-12-27T05:41:33.324Z,98461.47
2022-12-27T05:44:06.750Z,98469.94
2022-12-27T05:46:37.726Z,98476.03
2022-12-27T05:49:06.065Z,98491.75
2022-12-27T05:51:34.667Z,98500.16
2022-12-27T05:54:03.026Z,98510.81
2022-12-27T05:56:31.659Z,98513.41
2022-12-27T05:58:59.874Z,98513.97
2022-12-27T06:01:28.560Z,98515.66
2022-12-27T06:03:58.382Z,98523.75
2022-12-27T06:06:27.320Z,98529.03
2022-12-27T06:08:56.375Z,98510.97
2022-12-27T06:11:24.923Z,98537.25
2022-12-27T06:13:55.229Z,98526.28
2022-12-27T06:16:24.497Z,98525.75
2022-12-27T06:18:52.785Z,98533.34
2022-12-27T06:21:23.142Z,98553.28
2022-12-27T06:23:51.770Z,98559.38
2022-12-27T06:26:22.312Z,98556.19
2022-12-27T06:28:50.983Z,98567.69
2022-12-27T06:31:20.887Z,98573.22
2022-12-27T06:33:50.015Z,98584.88
2022-12-27T06:36:20.677Z,98591.22
2022-12-27T06:38:50.407Z,98598.13
2022-12-27T06:41:20.172Z,98601.69
2022-12-27T06:43:48.964Z,98606.66
2022-12-27T06:46:19.273Z,98617.47
2022-12-27T06:48:48.060Z,98621.50
2022-12-27T06:51:19.023Z,98627.69
2022-12-27T06:53:47.477Z,98633.31
2022-12-27T06:56:19.453Z,98637.53
2022-12-27T06:58:48.622Z,98650.38
2022-12-27T07:01:19.481Z,98657.16
2022-12-27T07:03:50.897Z,98662.38
2022-12-27T07:06:19.849Z,98671.56
2022-12-27T07:08:48.951Z,98679.59
2022-12-27T07:11:20.343Z,98691.75
2022-12-27T07:13:51.429Z,98691.75
2022-12-27T07:16:22.625Z,98700.69
2022-12-27T07:18:51.141Z,98690.78
2022-12-27T07:21:22.018Z,98705.63
2022-12-27T07:23:50.842Z,98698.28
2022-12-27T07:26:22.843Z,98702.00
2022-12-27T07:28:51.562Z,98714.03
2022-12-27T07:31:23.372Z,98713.09
2022-12-27T07:33:52.530Z,98717.66
2022-12-27T07:36:22.827Z,98731.38
2022-12-27T07:38:51.167Z,98744.63
2022-12-27T07:41:22.077Z,98750.44
2022-12-27T07:43:50.669Z,98746.56
2022-12-27T07:46:21.812Z,98750.19
2022-12-27T07:48:50.791Z,98762.53
2022-12-27T07:51:20.211Z,98767.44
2022-12-27T07:53:50.123Z,98778.56
2022-12-27T07:56:26.146Z,98785.72
2022-12-27T07:58:56.121Z,98781.19
2022-12-27T08:01:25.787Z,98799.81
2022-12-27T08:03:54.543Z,98800.13
2022-12-27T08:06:25.230Z,98802.75
2022-12-27T08:08:54.860Z,98812.44
2022-12-27T08:11:26.846Z,98819.00
2022-12-27T08:13:55.679Z,98817.41
2022-12-27T08:16:26.550Z,98822.56
2022-12-27T08:18:55.237Z,98840.94
2022-12-27T08:21:24.378Z,98828.72
2022-12-27T08:23:53.545Z,98836.16
2022-12-27T08:26:22.431Z,98836.34
2022-12-27T08:28:52.544Z,98845.31
2022-12-27T08:31:21.384Z,98854.69
2022-12-27T08:33:56.536Z,98847.97
2022-12-27T08:39:16.785Z,98866.63
2022-12-27T08:41:45.628Z,98858.41
2022-12-27T08:44:16.615Z,98876.19
2022-12-27T08:46:45.516Z,98866.41
2022-12-27T08:49:14.096Z,98873.66
2022-12-27T08:51:43.058Z,98880.31
2022-12-27T08:54:11.882Z,98876.81
2022-12-27T08:56:40.477Z,98870.31
2022-12-27T08:59:09.075Z,98873.50
2022-12-27T09:01:39.459Z,98881.84
2022-12-27T09:04:08.206Z,98873.56
2022-12-27T09:06:37.023Z,98881.44
2022-12-27T09:09:05.677Z,98885.44
2022-12-27T09:11:35.818Z,98885.44
2022-12-27T09:14:05.902Z,98885.09
2022-12-27T09:16:35.790Z,98885.53
2022-12-27T09:19:06.036Z,98879.88
2022-12-27T09:21:35.219Z,98888.56
2022-12-27T09:24:03.906Z,98876.53
2022-12-27T09:26:32.697Z,98877.72
2022-12-27T09:29:01.733Z,98862.94
2022-12-27T09:31:31.075Z,98854.47
2022-12-27T09:33:59.834Z,98859.94
2022-12-27T09:36:30.869Z,98852.97
2022-12-27T09:38:59.879Z,98854.78
2022-12-27T09:44:34.762Z,98845.56
2022-12-27T09:47:06.601Z,98864.22
2022-12-27T09:49:37.690Z,98842.53
2022-12-27T09:52:08.490Z,98858.66
2022-12-27T09:54:40.296Z,98853.63
2022-12-27T09:57:20.199Z,98858.31
2022-12-27T09:59:51.160Z,98858.97
2022-12-27T10:02:23.037Z,98848.38
2022-12-27T10:05:19.298Z,98859.41
2022-12-27T10:07:50.307Z,98854.41
2022-12-27T10:10:26.558Z,98851.34
2022-12-27T10:13:06.748Z,98860.50
2022-12-27T10:15:44.203Z,98859.69
2022-12-27T10:18:20.175Z,98861.19
2022-12-27T10:20:56.783Z,98869.41
2022-12-27T10:23:30.369Z,98857.88
2022-12-27T10:26:01.813Z,98848.78
2022-12-27T10:28:37.812Z,98849.72
2022-12-27T10:31:06.770Z,98859.06
2022-12-27T10:33:36.547Z,98852.19
2022-12-27T10:36:10.860Z,98852.44
2022-12-27T10:38:40.823Z,98850.97
2022-12-27T10:41:23.944Z,98847.91
2022-12-27T10:43:54.236Z,98858.25
2022-12-27T10:46:30.684Z,98861.31
2022-12-27T10:51:52.595Z,98866.34
2022-12-27T10:54:25.654Z,98849.59
2022-12-27T10:56:54.729Z,98853.34
2022-12-27T10:59:24.900Z,98866.91
2022-12-27T11:02:17.388Z,98862.88
2022-12-27T11:05:00.208Z,98858.38
2022-12-27T11:07:33.268Z,98856.75
2022-12-27T11:10:17.299Z,98849.75
2022-12-27T11:13:03.126Z,98851.81
2022-12-27T11:15:33.300Z,98856.38
2022-12-27T11:18:03.314Z,98843.53
2022-12-27T11:20:33.796Z,98854.59
2022-12-27T11:23:04.553Z,98865.06
2022-12-27T11:25:35.383Z,98867.50
2022-12-27T11:28:06.187Z,98874.03
2022-12-27T11:30:36.732Z,98870.50
2022-12-27T11:33:06.990Z,98871.19
2022-12-27T11:35:38.316Z,98876.41
2022-12-27T11:38:06.846Z,98871.47
2022-12-27T11:40:37.008Z,98874.63
2022-12-27T11:43:08.367Z,98871.53
2022-12-27T11:45:40.349Z,98877.81
2022-12-27T11:48:22.365Z,98873.28
2022-12-27T11:51:18.792Z,98867.78
2022-12-27T11:54:06.898Z,98882.66
2022-12-27T11:56:38.553Z,98867.28
2022-12-27T11:59:33.389Z,98876.41
2022-12-27T12:02:29.218Z,98891.41
2022-12-27T12:05:31.572Z,98884.84
2022-12-27T12:08:12.653Z,98883.06
2022-12-27T12:10:49.184Z,98877.34
2022-12-27T12:13:33.472Z,98870.53
2022-12-27T12:16:28.212Z,98861.50
2022-12-27T12:19:20.838Z,98870.00
2022-12-27T12:22:00.161Z,98865.06
2022-12-27T12:24:40.825Z,98871.94
2022-12-27T12:27:26.155Z,98864.81
2022-12-27T12:30:16.827Z,98868.06
2022-12-27T12:32:57.387Z,98874.66
2022-12-27T12:35:33.685Z,98879.56
2022-12-27T12:42:11.434Z,98882.34
2022-12-27T12:45:13.822Z,98886.16
2022-12-27T12:47:54.116Z,98887.78
2022-12-27T12:50:35.500Z,98876.56
2022-12-27T12:53:19.846Z,98882.34
2022-12-27T12:55:56.132Z,98896.56
2022-12-27T12:58:38.827Z,98880.41
2022-12-27T13:01:27.138Z,98876.56
2022-12-27T13:04:09.713Z,98875.47
2022-12-27T13:07:14.137Z,98886.16
2022-12-27T13:09:52.105Z,98882.44
2022-12-27T13:12:25.247Z,98882.94
2022-12-27T13:15:13.236Z,98900.16
2022-12-27T13:17:50.821Z,98895.81
2022-12-27T13:20:30.471Z,98895.50
2022-12-27T13:23:06.735Z,98880.94
2022-12-27T13:25:41.468Z,98892.41
2022-12-27T13:28:25.000Z,98892.91
2022-12-27T13:30:57.336Z,98887.38
2022-12-27T13:33:35.077Z,98896.53
2022-12-27T13:36:13.856Z,98905.38
2022-12-27T13:39:03.069Z,98913.31
2022-12-27T13:41:38.537Z,98913.19
2022-12-27T13:44:20.294Z,98903.06
2022-12-27T13:47:26.717Z,98907.84
2022-12-27T13:50:11.664Z,98915.41
2022-12-27T13:52:54.462Z,98903.59
2022-12-27T13:55:43.615Z,98921.97
2022-12-27T13:58:47.534Z,98920.00
2022-12-27T14:01:38.395Z,98920.66
2022-12-27T14:04:26.181Z,98920.97
2022-12-27T14:07:07.924Z,98922.09
2022-12-27T14:09:48.266Z,98925.75
2022-12-27T14:12:51.392Z,98939.84
2022-12-27T14:15:21.430Z,98922.94
2022-12-27T14:17:58.324Z,98928.00
2022-12-27T14:20:37.727Z,98915.94
2022-12-27T14:23:27.803Z,98930.94
2022-12-27T14:26:29.487Z,98930.06
2022-12-27T14:29:31.252Z,98917.81
2022-12-27T14:32:48.134Z,98927.41
2022-12-27T14:35:36.009Z,98935.72
2022-12-27T14:38:36.839Z,98948.06
2022-12-27T14:41:55.066Z,98947.09
2022-12-27T14:45:09.590Z,98957.13
2022-12-27T14:48:04.625Z,98962.63
2022-12-27T14:50:49.296Z,98968.06
2022-12-27T14:54:07.108Z,98960.91
2022-12-27T14:56:38.769Z,98972.84
2022-12-27T14:59:19.576Z,98972.91
2022-12-27T15:01:57.270Z,98958.38
2022-12-27T15:05:01.883Z,98973.34
2022-12-27T15:07:55.211Z,98970.03
2022-12-27T15:10:41.292Z,98970.19
2022-12-27T15:13:15.068Z,98978.13
2022-12-27T15:15:55.577Z,98992.78
2022-12-27T15:18:44.697Z,98998.22
2022-12-27T15:21:22.677Z,99011.47
2022-12-27T15:23:54.150Z,99004.34
2022-12-27T15:26:33.693Z,99012.22
2022-12-27T15:29:12.657Z,99015.88
2022-12-27T15:31:52.996Z,99001.88
2022-12-27T15:34:35.711Z,99002.56
2022-12-27T15:37:05.477Z,99007.75
2022-12-27T15:39:50.046Z,99004.53
2022-12-27T15:42:48.707Z,99007.47
2022-12-27T15:45:30.464Z,99003.03
2022-12-27T15:48:32.318Z,99010.78
2022-12-27T15:51:06.335Z,99007.50
2022-12-27T15:53:56.694Z,99012.47
2022-12-27T15:56:57.909Z,99014.13
2022-12-27T15:59:46.768Z,99015.41
2022-12-27T16:02:34.088Z,99007.09
2022-12-27T16:05:12.288Z,99014.50
2022-12-27T16:07:46.115Z,99018.38
2022-12-27T16:10:50.170Z,99010.88
2022-12-27T16:13:27.591Z,99019.06
2022-12-27T16:15:56.897Z,99018.22
2022-12-27T16:18:59.369Z,99020.84
2022-12-27T16:21:38.578Z,99035.13
2022-12-27T16:24:11.810Z,99022.50
2022-12-27T16:26:53.171Z,99032.59
2022-12-27T16:29:23.191Z,99027.75
2022-12-27T16:31:52.271Z,99028.72
2022-12-27T16:34:24.170Z,99034.66
2022-12-27T16:36:55.311Z,99032.84
2022-12-27T16:39:36.936Z,99033.16
2022-12-27T16:42:07.770Z,99031.44
2022-12-27T16:44:48.343Z,99042.91
2022-12-27T16:47:36.371Z,99045.22
2022-12-27T16:50:21.432Z,99037.06
2022-12-27T16:52:58.260Z,99045.16
2022-12-27T16:55:49.270Z,99032.25
2022-12-27T16:58:24.169Z,99032.00
2022-12-27T17:00:53.448Z,99044.03
2022-12-27T17:03:43.437Z,99035.09
2022-12-27T17:06:49.168Z,99048.28
2022-12-27T17:09:42.202Z,99048.72
2022-12-27T17:12:23.858Z,99053.34
2022-12-27T17:14:58.833Z,99059.69
2022-12-27T17:17:27.478Z,99040.25
2022-12-27T17:19:58.940Z,99052.53
2022-12-27T17:22:34.125Z,99053.41
2022-12-27T17:25:05.536Z,99051.19
2022-12-27T17:27:51.658Z,99060.88
2022-12-27T17:30:21.274Z,99059.88
2022-12-27T17:33:30.774Z,99062.91
2022-12-27T17:36:09.590Z,99054.94
2022-12-27T17:38:45.709Z,99051.03
2022-12-27T17:41:44.872Z,99057.31
2022-12-27T17:44:36.358Z,99061.38
2022-12-27T17:47:37.182Z,99067.38
2022-12-27T17:50:07.539Z,99068.38
2022-12-27T17:52:53.646Z,99071.31
2022-12-27T17:55:52.564Z,99066.41
2022-12-27T17:58:23.569Z,99076.88
2022-12-27T18:00:55.769Z,99076.16
2022-12-27T18:03:26.213Z,99079.81
2022-12-27T18:05:58.455Z,99079.13
2022-12-27T18:08:29.160Z,99080.75
2022-12-27T18:10:57.716Z,99082.28
2022-12-27T18:13:31.229Z,99082.19
2022-12-27T18:15:59.548Z,99086.72
2022-12-27T18:18:30.125Z,99083.81
2022-12-27T18:20:59.816Z,99084.16
2022-12-27T18:23:28.713Z,99082.84
2022-12-27T18:25:59.197Z,99089.66
2022-12-27T18:28:33.358Z,99091.78
2022-12-27T18:31:05.945Z,99092.44
2022-12-27T18:33:35.977Z,99099.81
2022-12-27T18:36:06.087Z,99105.97
2022-12-27T18:38:36.750Z,99099.91
2022-12-27T18:41:06.533Z,99106.31
2022-12-27T18:43:36.786Z,99106.22
2022-12-27T18:46:05.519Z,99106.75
2022-12-27T18:48:36.504Z,99114.03
2022-12-27T18:51:05.102Z,99120.94
2022-12-27T18:53:35.653Z,99103.44
2022-12-27T18:56:06.635Z,99099.06
2022-12-27T18:58:36.478Z,99106.78
2022-12-27T19:01:06.236Z,99119.19
2022-12-27T19:03:40.442Z,99115.47
2022-12-27T19:06:11.023Z,99106.31
2022-12-27T19:08:41.074Z,99110.59
2022-12-27T19:11:09.390Z,99106.16
2022-12-27T19:13:45.713Z,99103.84
2022-12-27T19:16:24.899Z,99095.34
2022-12-27T19:18:55.228Z,99096.94
2022-12-27T19:21:30.648Z,99105.47
2022-12-27T19:24:00.011Z,99110.97
2022-12-27T19:26:33.929Z,99103.78
2022-12-27T19:29:08.640Z,99105.91
2022-12-27T19:31:37.377Z,99105.41
2022-12-27T19:34:09.449Z,99116.53
2022-12-27T19:36:39.990Z,99115.81
2022-12-27T19:39:19.655Z,99123.13
2022-12-27T19:41:48.287Z,99120.25
2022-12-27T19:44:18.467Z,99119.94
2022-12-27T19:46:46.864Z,99116.88
2022-12-27T19:49:40.854Z,99119.47
2022-12-27T19:52:03.875Z,99116.44
2022-12-27T19:54:44.508Z,99119.41
2022-12-27T19:57:22.458Z,99118.69
2022-12-27T19:59:52.333Z,99117.53
2022-12-27T20:02:21.513Z,99122.75
2022-12-27T20:04:50.182Z,99132.19
2022-12-27T20:07:21.974Z,99133.84
2022-12-27T20:09:50.774Z,99148.00
2022-12-27T20:12:18.994Z,99146.22
2022-12-27T20:28:34.857Z,99159.00
2022-12-27T20:31:07.493Z,99159.66
2022-12-27T20:34:39.853Z,99158.03
2022-12-27T20:37:09.064Z,99150.91
2022-12-27T20:39:37.949Z,99154.34
2022-12-27T20:42:06.792Z,99158.59
2022-12-27T20:44:36.524Z,99157.19
2022-12-27T20:47:05.061Z,99154.38
2022-12-27T20:49:33.428Z,99160.94
2022-12-27T20:52:01.976Z,99162.50
2022-12-27T20:54:30.326Z,99171.72
2022-12-27T20:56:59.603Z,99171.81
2022-12-27T20:59:28.090Z,99177.13
2022-12-27T21:01:58.994Z,99183.50
2022-12-27T21:04:27.975Z,99177.97
2022-12-27T21:06:57.045Z,99173.84
2022-12-27T21:09:25.288Z,99181.66
2022-12-27T21:11:54.106Z,99183.78
2022-12-27T21:14:22.348Z,99183.31
2022-12-27T21:16:51.458Z,99180.19
2022-12-27T21:19:21.320Z,99170.50
2022-12-27T21:21:49.811Z,99174.31
2022-12-27T21:24:18.032Z,99178.81
2022-12-27T21:26:47.850Z,99176.25
2022-12-27T21:29:19.398Z,99173.63
2022-12-27T21:31:48.014Z,99184.72
2022-12-27T21:34:16.865Z,99182.59
2022-12-27T21:36:46.837Z,99172.91
2022-12-27T21:39:16.075Z,99177.81
2022-12-27T21:41:44.725Z,99175.56
2022-12-27T21:44:13.562Z,99169.97
2022-12-27T21:46:43.899Z,99169.34
2022-12-27T21:49:13.833Z,99162.28
2022-12-27T21:51:43.572Z,99161.78
2022-12-27T21:54:14.059Z,99165.84
2022-12-27T21:56:42.897Z,99152.13
2022-12-27T21:59:12.176Z,99159.75
2022-12-27T22:01:51.485Z,99163.47
2022-12-27T22:04:21.552Z,99152.78
2022-12-27T22:06:50.480Z,99152.44
2022-12-27T22:09:20.238Z,99160.94
2022-12-27T22:11:49.487Z,99163.53
2022-12-27T22:14:23.369Z,99156.69
2022-12-27T22:16:53.576Z,99156.69
2022-12-27T22:19:22.050Z,99151.97
2022-12-27T22:21:50.644Z,99152.09
2022-12-27T22:24:20.420Z,99152.00
2022-12-27T22:26:50.517Z,99153.50
2022-12-27T22:29:19.130Z,99149.63
2022-12-27T22:31:47.706Z,99156.56
2022-12-27T22:34:15.957Z,99158.94
2022-12-27T22:36:44.709Z,99152.91
2022-12-27T22:39:13.056Z,99146.53
2022-12-27T22:41:43.096Z,99148.75
2022-12-27T22:44:13.554Z,99148.38
2022-12-27T22:47:15.863Z,99157.44
2022-12-27T22:49:31.718Z,99157.56
2022-12-27T22:52:00.237Z,99159.91
2022-12-27T22:55:05.114Z,99156.38
2022-12-27T22:57:18.351Z,99149.31
2022-12-27T22:59:46.658Z,99150.00
2022-12-27T23:02:15.194Z,99151.53
2022-12-27T23:04:43.618Z,99148.09
2022-12-27T23:07:12.146Z,99142.78
2022-12-27T23:09:43.397Z,99148.22
2022-12-27T23:12:12.754Z,99157.44
2022-12-27T23:14:42.407Z,99160.50
2022-12-27T23:17:11.636Z,99157.91
2022-12-27T23:19:40.138Z,99155.50
2022-12-27T23:22:08.990Z,99155.75
2022-12-27T23:24:37.308Z,99165.78
2022-12-27T23:27:05.784Z,99155.84
2022-12-27T23:29:34.126Z,99155.34
2022-12-27T23:32:04.101Z,99154.13
2022-12-27T23:34:32.325Z,99159.69
2022-12-27T23:37:01.269Z,99157.63
2022-12-27T23:39:29.661Z,99145.69
2022-12-27T23:41:58.154Z,99136.25
2022-12-27T23:44:32.911Z,99141.19
2022-12-27T23:47:06.236Z,99128.59
2022-12-27T23:49:35.899Z,99133.16
2022-12-27T23:52:04.803Z,99120.28
2022-12-27T23:54:33.823Z,99129.00
2022-12-27T23:57:22.117Z,99122.53
2022-12-27T23:59:52.109Z,99116.63
